Datum Uhrzeit Temperatur Luft Windgeschw. Regen Regen (1h) Temp (1h) Luftdruck Windrichtung Taupunkt Sensor
2018-04-19 21:15:00 16.1 72.0 0.0 0.0 0.0 -2.3 11.1 Kombisensor
2018-04-19 21:12:00 16.2 72.0 0.0 0.0 0.0 -2.3 11.2 Kombisensor
2018-04-19 21:07:00 16.4 71.0 0.0 0.0 0.0 -2.3 11.1 Kombisensor
2018-04-19 21:05:00 16.5 71.0 0.0 0.0 0.0 -2.4 11.2 Kombisensor
2018-04-19 21:00:00 16.7 70.0 0.0 0.0 0.0 -2.4 11.2 Kombisensor
2018-04-19 20:54:00 16.8 70.0 0.0 0.0 0.0 -2.7 11.3 Kombisensor
2018-04-19 20:52:00 16.9 70.0 0.0 0.0 0.0 -2.6 11.4 Kombisensor
2018-04-19 20:49:00 17.0 69.0 0.2 0.0 0.0 -3.0 11.3 Kombisensor
2018-04-19 20:47:00 17.0 69.0 0.0 0.0 0.0 -3.1 11.3 Kombisensor
2018-04-19 20:44:00 17.1 69.0 0.0 0.0 0.0 -3.2 11.4 Kombisensor
2018-04-19 20:42:00 17.2 69.0 0.0 0.0 0.0 -3.2 11.5 Kombisensor
2018-04-19 20:39:00 17.3 68.0 0.0 0.0 0.0 -3.2 11.3 Kombisensor
2018-04-19 20:34:00 17.5 68.0 0.0 0.0 0.0 -3.3 11.5 Kombisensor
2018-04-19 20:32:00 17.6 67.0 0.0 0.0 0.0 -3.3 11.4 Kombisensor
2018-04-19 20:29:00 17.8 67.0 0.0 0.0 0.0 -3.2 11.6 Kombisensor
2018-04-19 20:26:00 17.9 67.0 0.0 0.0 0.0 -3.1 11.7 Kombisensor
2018-04-19 20:24:00 17.9 66.0 0.0 0.0 0.0 -3.1 11.5 Kombisensor
2018-04-19 20:21:00 18.0 66.0 0.0 0.0 0.0 -3.2 11.6 Kombisensor
2018-04-19 20:19:00 18.2 66.0 0.0 0.0 0.0 -3.0 11.8 Kombisensor
2018-04-19 20:16:00 18.3 66.0 0.0 0.0 0.0 -3.1 11.8 Kombisensor
2018-04-19 20:14:00 18.4 65.0 0.0 0.0 0.0 -3.0 11.7 Kombisensor
2018-04-19 20:11:00 18.5 65.0 0.0 0.0 0.0 -3.1 11.8 Kombisensor
2018-04-19 20:09:00 18.6 65.0 0.0 0.0 0.0 -2.9 11.9 Kombisensor
2018-04-19 20:06:00 18.7 64.0 0.0 0.0 0.0 -2.8 11.8 Kombisensor
2018-04-19 20:04:00 18.9 64.0 0.0 0.0 0.0 -2.7 11.9 Kombisensor
2018-04-19 20:01:00 19.1 64.0 0.0 0.0 0.0 -2.5 12.1 Kombisensor
2018-04-19 19:59:00 19.1 63.0 0.5 0.0 0.0 -2.5 11.9 Kombisensor
2018-04-19 19:53:00 19.5 62.0 0.0 0.0 0.0 -2.2 12.0 Kombisensor
2018-04-19 19:51:00 19.7 62.0 0.2 0.0 0.0 -2.0 12.2 Kombisensor
2018-04-19 19:48:00 20.0 61.0 0.0 0.0 0.0 -1.8 12.2 Kombisensor
2018-04-19 19:46:00 20.1 61.0 0.0 0.0 0.0 -1.8 12.3 Kombisensor
2018-04-19 19:43:00 20.3 60.0 0.0 0.0 0.0 -1.7 12.3 Kombisensor
2018-04-19 19:41:00 20.4 60.0 0.0 0.0 0.0 -1.7 12.4 Kombisensor
2018-04-19 19:38:00 20.5 60.0 0.0 0.0 0.0 -1.7 12.5 Kombisensor
2018-04-19 19:36:00 20.6 60.0 0.0 0.0 0.0 -1.8 12.6 Kombisensor
2018-04-19 19:33:00 20.8 59.0 0.0 0.0 0.0 -1.6 12.5 Kombisensor
2018-04-19 19:31:00 20.9 59.0 0.0 0.0 0.0 -1.5 12.6 Kombisensor
2018-04-19 19:28:00 21.0 59.0 0.2 0.0 0.0 -1.4 12.7 Kombisensor
2018-04-19 19:25:00 21.0 59.0 0.0 0.0 0.0 -1.6 12.7 Kombisensor
2018-04-19 19:23:00 21.0 58.0 0.2 0.0 0.0 -1.6 12.4 Kombisensor
2018-04-19 19:20:00 21.2 58.0 0.8 0.0 0.0 -1.6 12.6 Kombisensor
2018-04-19 19:18:00 21.3 58.0 0.2 0.0 0.0 -1.5 12.7 Kombisensor
2018-04-19 19:13:00 21.4 58.0 0.0 0.0 0.0 -1.4 12.8 Kombisensor
2018-04-19 19:10:00 21.6 58.0 0.0 0.0 0.0 -1.2 13.0 Kombisensor
2018-04-19 19:08:00 21.5 58.0 0.0 0.0 0.0 -1.3 12.9 Kombisensor
2018-04-19 19:05:00 21.5 58.0 1.3 0.0 0.0 -1.4 12.9 Kombisensor
2018-04-19 19:00:00 21.6 57.0 0.8 0.0 0.0 -1.6 12.7 Kombisensor
2018-04-19 18:55:00 21.6 57.0 1.6 0.0 0.0 -1.6 12.7 Kombisensor
2018-04-19 18:52:00 21.7 57.0 1.6 0.0 0.0 -1.9 12.8 Kombisensor
2018-04-19 18:50:00 21.8 57.0 1.1 0.0 0.0 -1.8 12.9 Kombisensor
2018-04-19 18:47:00 21.8 56.0 2.2 0.0 0.0 -1.8 12.6 Kombisensor
2018-04-19 18:45:00 21.9 56.0 1.9 0.0 0.0 -1.8 12.7 Kombisensor
2018-04-19 18:42:00 22.0 56.0 2.5 0.0 0.0 -2.0 12.8 Kombisensor
2018-04-19 18:40:00 22.1 56.0 1.9 0.0 0.0 -1.9 12.9 Kombisensor
2018-04-19 18:37:00 22.2 55.0 1.6 0.0 0.0 -1.7 12.7 Kombisensor
2018-04-19 18:32:00 22.4 55.0 1.6 0.0 0.0 -1.8 12.9 Kombisensor
2018-04-19 18:30:00 22.4 54.0 1.3 0.0 0.0 -1.9 12.6 Kombisensor
2018-04-19 18:27:00 22.4 54.0 1.9 0.0 0.0 -2.0 12.6 Kombisensor
2018-04-19 18:24:00 22.6 53.0 2.7 0.0 0.0 -1.7 12.5 Kombisensor
2018-04-19 18:22:00 23.0 52.0 0.5 0.0 0.0 -1.3 12.6 Kombisensor
2018-04-19 18:17:00 22.8 53.0 1.1 0.0 0.0 -1.8 12.7 Kombisensor
2018-04-19 18:14:00 22.7 53.0 2.2 0.0 0.0 -2.1 12.6 Kombisensor
2018-04-19 18:12:00 22.8 52.0 1.9 0.0 0.0 -2.0 12.4 Kombisensor
2018-04-19 18:09:00 22.8 52.0 2.7 0.0 0.0 -2.0 12.4 Kombisensor
2018-04-19 18:07:00 22.8 52.0 1.6 0.0 0.0 -1.9 12.4 Kombisensor
2018-04-19 18:04:00 22.9 51.0 1.9 0.0 0.0 -1.8 12.2 Kombisensor
2018-04-19 18:02:00 23.0 51.0 1.9 0.0 0.0 -1.8 12.3 Kombisensor
2018-04-19 17:59:00 23.2 51.0 1.9 0.0 0.0 -1.5 12.5 Kombisensor
2018-04-19 17:56:00 23.2 50.0 2.7 0.0 0.0 -1.8 12.2 Kombisensor
2018-04-19 17:51:00 23.6 49.0 1.6 0.0 0.0 -1.4 12.3 Kombisensor
2018-04-19 17:49:00 23.8 50.0 0.5 0.0 0.0 -1.2 12.8 Kombisensor
2018-04-19 17:46:00 23.6 49.0 1.3 0.0 0.0 -1.4 12.3 Kombisensor
2018-04-19 17:44:00 23.7 50.0 2.7 0.0 0.0 -1.3 12.7 Kombisensor
2018-04-19 17:41:00 24.0 49.0 1.3 0.0 0.0 -1.2 12.6 Kombisensor
2018-04-19 17:39:00 24.0 49.0 1.1 0.0 0.0 -1.1 12.6 Kombisensor
2018-04-19 17:36:00 23.9 48.0 2.2 0.0 0.0 -1.2 12.2 Kombisensor
2018-04-19 17:34:00 24.0 49.0 1.9 0.0 0.0 -1.1 12.6 Kombisensor
2018-04-19 17:31:00 24.2 48.0 1.9 0.0 0.0 -0.9 12.5 Kombisensor
2018-04-19 17:29:00 24.3 48.0 0.8 0.0 0.0 -0.8 12.6 Kombisensor
2018-04-19 17:26:00 24.4 48.0 0.8 0.0 0.0 -0.8 12.7 Kombisensor
2018-04-19 17:23:00 24.3 48.0 1.6 0.0 0.0 -1.0 12.6 Kombisensor
2018-04-19 17:21:00 24.5 48.0 0.8 0.0 0.0 -0.8 12.8 Kombisensor
2018-04-19 17:18:00 24.6 48.0 0.5 0.0 0.0 -0.9 12.9 Kombisensor
2018-04-19 17:16:00 24.6 48.0 0.8 0.0 0.0 -0.9 12.9 Kombisensor
2018-04-19 17:11:00 24.8 48.0 0.2 0.0 0.0 -0.6 13.1 Kombisensor
2018-04-19 17:08:00 24.8 49.0 0.2 0.0 0.0 -0.9 13.4 Kombisensor
2018-04-19 17:06:00 24.7 48.0 0.8 0.0 0.0 -0.9 13.0 Kombisensor
2018-04-19 17:03:00 24.7 49.0 1.1 0.0 0.0 -1.0 13.3 Kombisensor
2018-04-19 17:01:00 24.8 48.0 1.1 0.0 0.0 -1.0 13.1 Kombisensor
2018-04-19 16:58:00 24.7 49.0 1.6 0.0 0.0 -1.3 13.3 Kombisensor
2018-04-19 16:55:00 25.0 48.0 0.8 0.0 0.0 -1.3 13.2 Kombisensor
2018-04-19 16:53:00 24.9 48.0 0.8 0.0 0.0 -1.3 13.1 Kombisensor
2018-04-19 16:50:00 25.0 49.0 0.5 0.0 0.0 -1.2 13.6 Kombisensor
2018-04-19 16:48:00 25.0 48.0 0.0 0.0 0.0 -1.2 13.2 Kombisensor
2018-04-19 16:45:00 25.0 48.0 1.3 0.0 0.0 -1.6 13.2 Kombisensor
2018-04-19 16:43:00 25.0 48.0 1.1 0.0 0.0 -1.6 13.2 Kombisensor
2018-04-19 16:40:00 25.2 48.0 0.5 0.0 0.0 -1.1 13.4 Kombisensor
2018-04-19 16:38:00 25.1 49.0 0.8 0.0 0.0 -1.3 13.6 Kombisensor
2018-04-19 16:30:00 25.1 48.0 0.5 0.0 0.0 -1.4 13.3 Kombisensor
2018-04-19 16:28:00 25.1 48.0 0.8 0.0 0.0 -1.2 13.3 Kombisensor
2018-04-19 16:25:00 25.2 48.0 0.5 0.0 0.0 -0.9 13.4 Kombisensor
2018-04-19 16:22:00 25.3 48.0 1.3 0.0 0.0 -0.9 13.5 Kombisensor
2018-04-19 16:20:00 25.4 48.0 0.8 0.0 0.0 -0.8 13.6 Kombisensor
2018-04-19 16:17:00 25.5 47.0 0.5 0.0 0.0 -0.7 13.4 Kombisensor
2018-04-19 16:15:00 25.8 48.0 0.2 0.0 0.0 -0.4 14.0 Kombisensor
2018-04-19 16:12:00 25.6 48.0 0.8 0.0 0.0 -0.6 13.8 Kombisensor
2018-04-19 16:10:00 25.4 47.0 1.9 0.0 0.0 -0.8 13.3 Kombisensor
2018-04-19 16:07:00 25.7 47.0 0.5 0.0 0.0 -0.4 13.6 Kombisensor
2018-04-19 16:05:00 25.6 47.0 1.1 0.0 0.0 -0.7 13.4 Kombisensor
2018-04-19 16:02:00 25.7 47.0 0.8 0.0 0.0 -0.3 13.6 Kombisensor
2018-04-19 16:00:00 25.8 47.0 0.5 0.0 0.0 -0.2 13.6 Kombisensor
2018-04-19 15:57:00 26.0 46.0 0.8 0.0 0.0 0.0 13.5 Kombisensor
2018-04-19 15:55:00 26.3 47.0 0.0 0.0 0.0 0.3 14.1 Kombisensor
2018-04-19 15:49:00 26.2 46.0 0.5 0.0 0.0 0.6 13.7 Kombisensor
2018-04-19 15:47:00 26.4 45.0 1.1 0.0 0.0 0.8 13.5 Kombisensor
2018-04-19 15:44:00 26.6 42.0 0.0 0.0 0.0 0.9 12.6 Kombisensor
2018-04-19 15:42:00 26.4 42.0 0.0 0.0 0.0 0.5 12.5 Kombisensor
2018-04-19 15:39:00 26.3 43.0 0.8 0.0 0.0 0.2 12.7 Kombisensor
2018-04-19 15:37:00 26.4 43.0 1.1 0.0 0.0 0.4 12.8 Kombisensor
2018-04-19 15:34:00 26.6 43.0 0.2 0.0 0.0 0.7 13.0 Kombisensor
2018-04-19 15:32:00 26.8 44.0 0.0 0.0 0.0 0.7 13.5 Kombisensor
2018-04-19 15:29:00 26.5 43.0 0.2 0.0 0.0 0.4 12.9 Kombisensor
2018-04-19 15:27:00 26.3 43.0 0.5 0.0 0.0 0.5 12.7 Kombisensor
2018-04-19 15:24:00 26.1 43.0 1.1 0.0 0.0 0.4 12.6 Kombisensor
2018-04-19 15:21:00 26.2 43.0 0.0 0.0 0.0 0.7 12.6 Kombisensor
2018-04-19 15:19:00 26.0 43.0 1.1 0.0 0.0 0.5 12.5 Kombisensor
2018-04-19 15:16:00 26.2 43.0 0.0 0.0 0.0 0.6 12.6 Kombisensor
2018-04-19 15:14:00 26.2 42.0 0.2 0.0 0.0 0.6 12.3 Kombisensor
2018-04-19 15:09:00 26.2 45.0 0.8 0.0 0.0 1.2 13.3 Kombisensor
2018-04-19 15:06:00 26.1 45.0 0.2 0.0 0.0 0.6 13.2 Kombisensor
2018-04-19 15:04:00 26.3 44.0 0.0 0.0 0.0 0.7 13.1 Kombisensor
2018-04-19 15:01:00 26.0 43.0 0.8 0.0 0.0 0.6 12.5 Kombisensor
2018-04-19 14:56:00 26.0 45.0 0.2 0.0 0.0 0.5 13.2 Kombisensor
2018-04-19 14:54:00 26.0 45.0 0.0 0.0 0.0 0.8 13.2 Kombisensor
2018-04-19 14:51:00 25.7 44.0 0.5 0.0 0.0 0.5 12.5 Kombisensor
2018-04-19 14:48:00 25.6 43.0 0.2 0.0 0.0 0.8 12.1 Kombisensor
2018-04-19 14:46:00 25.7 43.0 0.5 0.0 0.0 0.9 12.2 Kombisensor
2018-04-19 14:43:00 25.7 44.0 1.1 0.0 0.0 1.2 12.5 Kombisensor
2018-04-19 14:41:00 25.9 46.0 1.1 0.0 0.0 1.5 13.4 Kombisensor
2018-04-19 14:38:00 26.1 43.0 0.2 0.0 0.0 1.7 12.6 Kombisensor
2018-04-19 14:36:00 26.0 43.0 0.0 0.0 0.0 1.6 12.5 Kombisensor
2018-04-19 14:33:00 25.9 45.0 0.5 0.0 0.0 1.5 13.1 Kombisensor
2018-04-19 14:28:00 26.1 45.0 0.0 0.0 0.0 1.8 13.2 Kombisensor
2018-04-19 14:26:00 25.8 45.0 0.2 0.0 0.0 1.4 13.0 Kombisensor
2018-04-19 14:23:00 25.7 44.0 0.8 0.0 0.0 1.5 12.5 Kombisensor
2018-04-19 14:20:00 25.5 46.0 0.2 0.0 0.0 0.8 13.0 Kombisensor
2018-04-19 14:18:00 25.2 44.0 0.5 0.0 0.0 0.5 12.1 Kombisensor
2018-04-19 14:15:00 25.6 44.0 0.8 0.0 0.0 1.6 12.4 Kombisensor
2018-04-19 14:10:00 25.4 47.0 0.0 0.0 0.0 1.4 13.3 Kombisensor
2018-04-19 14:08:00 25.0 47.0 1.1 0.0 0.0 1.0 12.9 Kombisensor
2018-04-19 14:05:00 25.5 44.0 0.5 0.0 0.0 1.4 12.4 Kombisensor
2018-04-19 14:03:00 25.6 46.0 0.0 0.0 0.0 1.5 13.1 Kombisensor
2018-04-19 14:00:00 25.4 46.0 0.5 0.0 0.0 1.1 12.9 Kombisensor
2018-04-19 13:58:00 25.4 45.0 1.1 0.0 0.0 1.2 12.6 Kombisensor
2018-04-19 13:55:00 25.5 47.0 0.0 0.0 0.0 1.4 13.4 Kombisensor
2018-04-19 13:52:00 25.2 47.0 0.0 0.0 0.0 1.4 13.1 Kombisensor
2018-04-19 13:47:00 24.8 49.0 0.5 0.0 0.0 1.2 13.4 Kombisensor
2018-04-19 13:42:00 24.5 46.0 1.3 0.0 0.0 1.3 12.1 Kombisensor
2018-04-19 13:40:00 24.4 48.0 0.5 0.0 0.0 1.2 12.7 Kombisensor
2018-04-19 13:35:00 24.4 47.0 0.5 0.0 0.0 1.4 12.4 Kombisensor
2018-04-19 13:30:00 24.4 47.0 1.1 0.0 0.0 1.6 12.4 Kombisensor
2018-04-19 13:27:00 24.3 47.0 0.2 0.0 0.0 1.5 12.3 Kombisensor
2018-04-19 13:25:00 24.4 47.0 0.2 0.0 0.0 1.7 12.4 Kombisensor
2018-04-19 13:22:00 24.2 48.0 2.2 0.0 0.0 1.7 12.5 Kombisensor
2018-04-19 13:19:00 24.7 48.0 0.0 0.0 0.0 2.2 13.0 Kombisensor
2018-04-19 13:17:00 24.3 48.0 0.0 0.0 0.0 1.8 12.6 Kombisensor
2018-04-19 13:14:00 24.0 48.0 0.5 0.0 0.0 1.8 12.3 Kombisensor
2018-04-19 13:12:00 24.0 49.0 1.9 0.0 0.0 2.0 12.6 Kombisensor
2018-04-19 13:07:00 24.0 48.0 0.8 0.0 0.0 2.0 12.3 Kombisensor
2018-04-19 13:04:00 24.1 48.0 1.3 0.0 0.0 2.2 12.7 Kombisensor
2018-04-19 13:02:00 24.1 49.0 1.3 0.0 0.0 2.2 12.7 Kombisensor
2018-04-19 12:59:00 24.3 49.0 0.5 0.0 0.0 2.4 12.9 Kombisensor
2018-04-19 12:57:00 24.2 48.0 0.2 0.0 0.0 2.6 12.5 Kombisensor
2018-04-19 12:54:00 24.1 49.0 0.0 0.0 0.0 2.5 12.7 Kombisensor
2018-04-19 12:51:00 23.8 49.0 0.2 0.0 0.0 2.3 12.4 Kombisensor
2018-04-19 12:49:00 23.8 50.0 0.0 0.0 0.0 2.3 12.8 Kombisensor
2018-04-19 12:46:00 23.6 49.0 0.5 0.0 0.0 2.1 12.3 Kombisensor
2018-04-19 12:44:00 23.4 51.0 0.5 0.0 0.0 1.9 12.7 Kombisensor
2018-04-19 12:41:00 23.2 50.0 0.8 0.0 0.0 1.7 12.2 Kombisensor
2018-04-19 12:39:00 23.2 51.0 1.9 0.0 0.0 1.8 12.5 Kombisensor
2018-04-19 12:36:00 23.3 52.0 1.3 0.0 0.0 1.9 12.9 Kombisensor
2018-04-19 12:34:00 23.0 51.0 1.1 0.0 0.0 1.6 12.3 Kombisensor
2018-04-19 12:31:00 23.2 51.0 1.1 0.0 0.0 1.9 12.5 Kombisensor
2018-04-19 12:26:00 22.8 54.0 0.0 0.0 0.0 1.7 13.0 Kombisensor
2018-04-19 12:24:00 22.7 54.0 0.0 0.0 0.0 1.8 12.9 Kombisensor
2018-04-19 12:21:00 22.5 54.0 1.3 0.0 0.0 1.8 12.7 Kombisensor
2018-04-19 12:18:00 22.5 56.0 0.2 0.0 0.0 1.8 13.3 Kombisensor
2018-04-19 12:16:00 22.3 55.0 1.1 0.0 0.0 1.6 12.8 Kombisensor
2018-04-19 12:13:00 22.2 55.0 1.3 0.0 0.0 1.8 12.7 Kombisensor
2018-04-19 12:11:00 22.0 54.0 2.2 0.0 0.0 1.6 12.3 Kombisensor
2018-04-19 12:08:00 22.1 54.0 2.2 0.0 0.0 1.8 12.4 Kombisensor
2018-04-19 12:06:00 22.0 55.0 0.0 0.0 0.0 1.7 12.6 Kombisensor
2018-04-19 12:01:00 21.9 54.0 1.1 0.0 0.0 1.6 12.2 Kombisensor
2018-04-19 11:58:00 21.9 54.0 1.9 0.0 0.0 1.7 12.2 Kombisensor
2018-04-19 11:53:00 21.6 54.0 2.5 0.0 0.0 1.6 11.9 Kombisensor
2018-04-19 11:50:00 21.5 57.0 2.2 0.0 0.0 1.6 12.6 Kombisensor
2018-04-19 11:45:00 21.5 57.0 0.8 0.0 0.0 2.0 12.6 Kombisensor
2018-04-19 11:43:00 21.4 59.0 0.5 0.0 0.0 1.9 13.1 Kombisensor
2018-04-19 11:40:00 21.5 59.0 0.0 0.0 0.0 2.1 13.2 Kombisensor
2018-04-19 11:38:00 21.4 58.0 1.3 0.0 0.0 2.0 12.8 Kombisensor
2018-04-19 11:33:00 21.4 59.0 0.8 0.0 0.0 2.3 13.1 Kombisensor
2018-04-19 11:30:00 21.3 60.0 0.0 0.0 0.0 2.2 13.2 Kombisensor
2018-04-19 11:25:00 21.1 60.0 0.5 0.0 0.0 2.1 13.0 Kombisensor
2018-04-19 11:23:00 20.9 61.0 1.6 0.0 0.0 2.2 13.1 Kombisensor
2018-04-19 11:20:00 20.7 61.0 0.5 0.0 0.0 2.1 12.9 Kombisensor
2018-04-19 11:17:00 20.7 62.0 0.5 0.0 0.0 2.2 13.2 Kombisensor
2018-04-19 11:15:00 20.7 62.0 0.2 0.0 0.0 2.2 13.2 Kombisensor
2018-04-19 11:12:00 20.4 62.0 1.1 0.0 0.0 2.2 12.9 Kombisensor
2018-04-19 11:10:00 20.4 62.0 0.5 0.0 0.0 2.4 12.9 Kombisensor
2018-04-19 11:05:00 20.3 63.0 0.2 0.0 0.0 2.5 13.0 Kombisensor
2018-04-19 11:02:00 20.2 63.0 0.5 0.0 0.0 2.5 12.9 Kombisensor
2018-04-19 11:00:00 20.3 63.0 0.0 0.0 0.0 2.7 13.0 Kombisensor
2018-04-19 10:57:00 20.2 64.0 0.0 0.0 0.0 2.8 13.2 Kombisensor
2018-04-19 10:55:00 20.1 65.0 0.2 0.0 0.0 2.7 13.3 Kombisensor
2018-04-19 10:52:00 20.0 65.0 0.0 0.0 0.0 2.8 13.2 Kombisensor
2018-04-19 10:49:00 19.9 65.0 0.0 0.0 0.0 2.7 13.1 Kombisensor
2018-04-19 10:47:00 19.6 66.0 0.0 0.0 0.0 2.8 13.1 Kombisensor
2018-04-19 10:44:00 19.5 65.0 0.5 0.0 0.0 2.7 12.8 Kombisensor
2018-04-19 10:42:00 19.5 67.0 0.0 0.0 0.0 2.7 13.2 Kombisensor
2018-04-19 10:39:00 19.4 66.0 0.5 0.0 0.0 3.0 12.9 Kombisensor
2018-04-19 10:37:00 19.4 67.0 0.0 0.0 0.0 3.1 13.1 Kombisensor
2018-04-19 10:34:00 19.2 65.0 0.2 0.0 0.0 3.1 12.5 Kombisensor
2018-04-19 10:32:00 19.1 66.0 0.0 0.0 0.0 3.3 12.6 Kombisensor
2018-04-19 10:29:00 19.1 66.0 0.5 0.0 0.0 3.3 12.6 Kombisensor
2018-04-19 10:24:00 19.0 69.0 0.2 0.0 0.0 3.4 13.2 Kombisensor
2018-04-19 10:22:00 18.7 69.0 0.0 0.0 0.0 3.1 12.9 Kombisensor
2018-04-19 10:19:00 18.6 70.0 0.2 0.0 0.0 3.2 13.0 Kombisensor
2018-04-19 10:16:00 18.5 70.0 0.0 0.0 0.0 3.3 12.9 Kombisensor
2018-04-19 10:14:00 18.4 71.0 0.0 0.0 0.0 3.2 13.1 Kombisensor
2018-04-19 10:11:00 18.2 72.0 0.0 0.0 0.0 3.3 13.1 Kombisensor
2018-04-19 10:09:00 18.0 71.0 0.0 0.0 0.0 3.2 12.7 Kombisensor
2018-04-19 10:06:00 18.0 72.0 0.2 0.0 0.0 3.6 12.9 Kombisensor
2018-04-19 10:04:00 17.8 71.0 0.0 0.0 0.0 3.4 12.5 Kombisensor
2018-04-19 10:01:00 17.7 72.0 0.0 0.0 0.0 3.5 12.6 Kombisensor
2018-04-19 09:59:00 17.6 72.0 0.0 0.0 0.0 3.6 12.5 Kombisensor
2018-04-19 09:54:00 17.4 73.0 0.0 0.0 0.0 3.5 12.5 Kombisensor
2018-04-19 09:51:00 17.2 74.0 0.0 0.0 0.0 3.4 12.5 Kombisensor
2018-04-19 09:49:00 17.2 75.0 0.0 0.0 0.0 3.6 12.7 Kombisensor
2018-04-19 09:43:00 16.8 76.0 0.0 0.0 0.0 3.3 12.6 Kombisensor
2018-04-19 09:41:00 16.6 75.0 0.0 0.0 0.0 3.1 12.2 Kombisensor
2018-04-19 09:38:00 16.4 75.0 0.0 0.0 0.0 3.2 12.0 Kombisensor
2018-04-19 09:36:00 16.3 75.0 0.0 0.0 0.0 3.3 11.9 Kombisensor
2018-04-19 09:33:00 16.1 76.0 0.0 0.0 0.0 3.1 11.9 Kombisensor
2018-04-19 09:28:00 15.8 77.0 0.0 0.0 0.0 3.0 11.8 Kombisensor
2018-04-19 09:26:00 15.7 78.0 0.0 0.0 0.0 3.0 11.9 Kombisensor
2018-04-19 09:21:00 15.6 78.0 0.0 0.0 0.0 2.9 11.8 Kombisensor
2018-04-19 09:18:00 15.4 79.0 0.0 0.0 0.0 2.7 11.8 Kombisensor
2018-04-19 09:15:00 15.2 79.0 0.0 0.0 0.0 2.7 11.6 Kombisensor
2018-04-19 09:13:00 15.1 79.0 0.0 0.0 0.0 2.6 11.5 Kombisensor
2018-04-19 09:10:00 14.9 80.0 0.0 0.0 0.0 2.6 11.5 Kombisensor
2018-04-19 09:08:00 14.8 81.0 0.0 0.0 0.0 2.7 11.6 Kombisensor
2018-04-19 09:03:00 14.4 82.0 0.0 0.0 0.0 2.6 11.4 Kombisensor
2018-04-19 09:00:00 14.2 83.0 0.0 0.0 0.0 2.6 11.4 Kombisensor
2018-04-19 08:55:00 14.0 82.0 0.0 0.0 0.0 2.9 11.0 Kombisensor
2018-04-19 08:53:00 13.9 82.0 0.0 0.0 0.0 3.0 10.9 Kombisensor
2018-04-19 08:50:00 13.8 82.0 0.0 0.0 0.0 3.1 10.8 Kombisensor
2018-04-19 08:45:00 13.6 83.0 0.0 0.0 0.0 3.3 10.8 Kombisensor
2018-04-19 08:42:00 13.5 84.0 0.0 0.0 0.0 4.0 10.8 Kombisensor
2018-04-19 08:40:00 13.3 84.0 0.0 0.0 0.0 3.8 10.7 Kombisensor
2018-04-19 08:37:00 13.2 85.0 0.0 0.0 0.0 4.3 10.7 Kombisensor
2018-04-19 08:35:00 13.0 85.0 0.0 0.0 0.0 4.5 10.5 Kombisensor
2018-04-19 08:32:00 13.0 86.0 0.0 0.0 0.0 4.6 10.7 Kombisensor
2018-04-19 08:30:00 12.9 86.0 0.0 0.0 0.0 4.8 10.6 Kombisensor
2018-04-19 08:27:00 12.8 86.0 0.0 0.0 0.0 4.9 10.5 Kombisensor
2018-04-19 08:22:00 12.7 86.0 0.0 0.0 0.0 4.9 10.4 Kombisensor
2018-04-19 08:17:00 12.7 87.0 0.0 0.0 0.0 5.2 10.6 Kombisensor
2018-04-19 08:14:00 12.5 88.0 0.0 0.0 0.0 5.1 10.6 Kombisensor
2018-04-19 08:12:00 12.4 89.0 0.0 0.0 0.0 5.0 10.6 Kombisensor
2018-04-19 08:09:00 12.3 89.0 0.0 0.0 0.0 5.0 10.5 Kombisensor
2018-04-19 08:07:00 12.1 90.0 0.0 0.0 0.0 4.7 10.5 Kombisensor
2018-04-19 08:04:00 11.9 90.0 0.0 0.0 0.0 4.5 10.3 Kombisensor
2018-04-19 08:02:00 11.8 90.0 0.0 0.0 0.0 4.4 10.2 Kombisensor
2018-04-19 07:59:00 11.6 91.0 0.0 0.0 0.0 4.0 10.2 Kombisensor
2018-04-19 07:57:00 11.4 91.0 0.0 0.0 0.0 3.8 10.0 Kombisensor
2018-04-19 07:54:00 11.1 91.0 0.0 0.0 0.0 3.5 9.7 Kombisensor
2018-04-19 07:52:00 10.9 91.0 0.0 0.0 0.0 3.4 9.5 Kombisensor
2018-04-19 07:49:00 10.7 91.0 0.0 0.0 0.0 3.2 8.9 Kombisensor
2018-04-19 07:46:00 10.3 91.0 0.0 0.0 0.0 2.8 8.9 Kombisensor
2018-04-19 07:41:00 9.5 91.0 0.0 0.0 0.0 2.1 8.1 Kombisensor
2018-04-19 07:39:00 9.2 90.0 0.0 0.0 0.0 1.8 7.7 Kombisensor
2018-04-19 07:36:00 8.9 90.0 0.0 0.0 0.0 1.6 7.3 Kombisensor
2018-04-19 07:34:00 8.5 90.0 0.0 0.0 0.0 1.1 7.0 Kombisensor
2018-04-19 07:31:00 8.4 90.0 0.0 0.0 0.0 0.9 6.9 Kombisensor
2018-04-19 07:29:00 8.1 90.0 0.0 0.0 0.0 0.5 6.6 Kombisensor
2018-04-19 07:26:00 7.9 91.0 0.0 0.0 0.0 0.3 6.5 Kombisensor
2018-04-19 07:21:00 7.8 91.0 0.0 0.0 0.0 0.0 6.4 Kombisensor
2018-04-19 07:19:00 7.6 91.0 0.0 0.0 0.0 -0.3 6.2 Kombisensor
2018-04-19 07:16:00 7.5 90.0 0.0 0.0 0.0 -0.5 6.0 Kombisensor
2018-04-19 07:11:00 7.4 90.0 0.0 0.0 0.0 -0.6 5.9 Kombisensor
2018-04-19 07:08:00 7.3 90.0 0.0 0.0 0.0 -0.7 5.8 Kombisensor
2018-04-19 07:01:00 7.4 90.0 0.0 0.0 0.0 -0.5 5.9 Kombisensor
2018-04-19 06:53:00 7.6 90.0 0.0 0.0 0.0 -0.4 6.1 Kombisensor
2018-04-19 06:45:00 7.5 90.0 0.0 0.0 0.0 -0.5 6.0 Kombisensor
2018-04-19 06:40:00 7.4 90.0 0.0 0.0 0.0 -0.6 5.9 Kombisensor
2018-04-19 06:35:00 7.3 90.0 0.0 0.0 0.0 -0.9 5.8 Kombisensor
2018-04-19 06:33:00 7.4 90.0 0.0 0.0 0.0 -0.9 5.9 Kombisensor
2018-04-19 06:30:00 7.5 90.0 0.0 0.0 0.0 -0.9 6.0 Kombisensor
2018-04-19 06:25:00 7.6 90.0 0.0 0.0 0.0 -1.0 6.1 Kombisensor
2018-04-19 06:20:00 7.8 90.0 0.0 0.0 0.0 -1.0 6.3 Kombisensor
2018-04-19 06:18:00 7.9 90.0 0.0 0.0 0.0 -0.9 6.4 Kombisensor
2018-04-19 06:07:00 8.0 90.0 0.0 0.0 0.0 -0.8 6.5 Kombisensor
2018-04-19 06:02:00 7.8 90.0 0.0 0.0 0.0 -1.1 6.3 Kombisensor
2018-04-19 05:57:00 7.9 90.0 0.0 0.0 0.0 -1.1 6.4 Kombisensor
2018-04-19 05:47:00 8.0 90.0 0.0 0.0 0.0 -1.0 6.5 Kombisensor
2018-04-19 05:39:00 8.0 89.0 0.0 0.0 0.0 -0.8 6.3 Kombisensor
2018-04-19 05:37:00 8.1 89.0 0.0 0.0 0.0 -0.7 6.4 Kombisensor
2018-04-19 05:34:00 8.2 89.0 0.0 0.0 0.0 -0.6 6.5 Kombisensor
2018-04-19 05:32:00 8.3 89.0 0.0 0.0 0.0 -0.6 6.6 Kombisensor
2018-04-19 05:29:00 8.4 89.0 0.0 0.0 0.0 -0.5 6.7 Kombisensor
2018-04-19 05:27:00 8.5 90.0 0.0 0.0 0.0 -0.5 7.0 Kombisensor
2018-04-19 05:24:00 8.6 90.0 0.0 0.0 0.0 -0.4 7.1 Kombisensor
2018-04-19 05:22:00 8.7 90.0 0.0 0.0 0.0 -0.3 7.2 Kombisensor
2018-04-19 05:16:00 8.8 90.0 0.0 0.0 0.0 -0.2 7.2 Kombisensor
2018-04-19 05:14:00 8.9 90.0 0.0 0.0 0.0 -0.1 7.3 Kombisensor
2018-04-19 05:06:00 8.8 90.0 0.0 0.0 0.0 -0.1 7.2 Kombisensor
2018-04-19 05:04:00 8.7 90.0 0.0 0.0 0.0 -0.2 7.2 Kombisensor
2018-04-19 04:59:00 8.9 90.0 0.0 0.0 0.0 0.0 7.3 Kombisensor
2018-04-19 04:54:00 9.0 90.0 0.0 0.0 0.0 0.1 7.5 Kombisensor
2018-04-19 04:51:00 9.1 90.0 0.0 0.0 0.0 0.2 7.5 Kombisensor
2018-04-19 04:46:00 9.0 90.0 0.0 0.0 0.0 0.0 7.5 Kombisensor
2018-04-19 04:43:00 9.1 89.0 0.0 0.0 0.0 0.1 7.4 Kombisensor
2018-04-19 04:41:00 9.0 89.0 0.0 0.0 0.0 0.0 7.3 Kombisensor
2018-04-19 04:33:00 8.8 89.0 0.0 0.0 0.0 -0.3 7.1 Kombisensor
2018-04-19 04:28:00 8.9 89.0 0.0 0.0 0.0 -0.3 7.2 Kombisensor
2018-04-19 04:08:00 9.0 89.0 0.0 0.0 0.0 -0.3 7.3 Kombisensor
2018-04-19 04:03:00 8.9 89.0 0.0 0.0 0.0 -0.6 7.2 Kombisensor
2018-04-19 04:00:00 8.9 88.0 0.0 0.0 0.0 -0.7 7.0 Kombisensor
2018-04-19 03:53:00 8.9 89.0 0.0 0.0 0.0 -0.9 7.2 Kombisensor
2018-04-19 03:50:00 8.9 88.0 0.0 0.0 0.0 -0.9 7.0 Kombisensor
2018-04-19 03:42:00 9.0 88.0 0.0 0.0 0.0 -1.0 7.1 Kombisensor
2018-04-19 03:35:00 9.2 88.0 0.0 0.0 0.0 -0.9 7.3 Kombisensor
2018-04-19 03:30:00 9.1 88.0 0.0 0.0 0.0 -1.0 7.2 Kombisensor
2018-04-19 03:17:00 9.2 88.0 0.0 0.0 0.0 -0.3 7.3 Kombisensor
2018-04-19 03:15:00 9.3 88.0 0.0 0.0 0.0 -0.3 7.4 Kombisensor
2018-04-19 03:07:00 9.3 87.0 0.0 0.0 0.0 -0.2 7.2 Kombisensor
2018-04-19 03:04:00 9.4 87.0 0.0 0.0 0.0 -0.1 7.3 Kombisensor
2018-04-19 03:02:00 9.5 87.0 0.0 0.0 0.0 0.0 7.5 Kombisensor
2018-04-19 02:57:00 9.6 87.0 0.0 0.0 0.0 0.0 7.5 Kombisensor
2018-04-19 02:54:00 9.7 87.0 0.0 0.0 0.0 0.1 7.6 Kombisensor
2018-04-19 02:49:00 9.8 87.0 0.0 0.0 0.0 0.2 7.7 Kombisensor
2018-04-19 02:47:00 9.9 87.0 0.0 0.0 0.0 0.5 7.8 Kombisensor
2018-04-19 02:44:00 10.0 87.0 0.0 0.0 0.0 0.6 7.9 Kombisensor
2018-04-19 02:39:00 10.0 88.0 0.0 0.0 0.0 0.7 8.1 Kombisensor
2018-04-19 02:29:00 10.1 88.0 0.0 0.0 0.0 0.8 8.2 Kombisensor
2018-04-19 02:26:00 10.0 89.0 0.0 0.0 0.0 0.6 8.3 Kombisensor
2018-04-19 02:24:00 9.8 89.0 0.0 0.0 0.0 0.4 8.1 Kombisensor
2018-04-19 02:21:00 9.6 88.0 0.0 0.0 0.0 0.1 7.7 Kombisensor
2018-04-19 02:16:00 9.5 88.0 0.0 0.0 0.0 -0.1 7.6 Kombisensor
2018-04-19 02:11:00 9.6 88.0 0.0 0.0 0.0 0.2 7.7 Kombisensor
2018-04-19 01:58:00 9.5 88.0 0.0 0.0 0.0 0.5 7.6 Kombisensor
2018-04-19 01:48:00 9.6 88.0 0.0 0.0 0.0 0.5 7.7 Kombisensor
2018-04-19 01:46:00 9.4 88.0 0.0 0.0 0.0 0.2 7.5 Kombisensor
2018-04-19 01:43:00 9.4 87.0 0.0 0.0 0.0 0.2 7.3 Kombisensor
2018-04-19 01:35:00 9.3 87.0 0.0 0.0 0.0 0.1 7.2 Kombisensor
2018-04-19 01:33:00 9.2 87.0 0.0 0.0 0.0 0.0 7.2 Kombisensor
2018-04-19 01:28:00 9.3 87.0 0.0 0.0 0.0 0.0 7.2 Kombisensor
2018-04-19 01:23:00 9.4 87.0 0.0 0.0 0.0 0.0 7.3 Kombisensor
2018-04-19 01:20:00 9.5 87.0 0.0 0.0 0.0 0.1 7.5 Kombisensor
2018-04-19 01:15:00 9.6 87.0 0.0 0.0 0.0 0.0 7.5 Kombisensor
2018-04-19 01:13:00 9.6 88.0 0.0 0.0 0.0 0.0 7.7 Kombisensor
2018-04-19 01:10:00 9.4 87.0 0.0 0.0 0.0 -0.2 7.3 Kombisensor
2018-04-19 01:07:00 9.2 87.0 0.0 0.0 0.0 -0.5 7.2 Kombisensor
2018-04-19 01:05:00 9.0 86.0 0.0 0.0 0.0 -0.7 6.8 Kombisensor
2018-04-19 01:00:00 8.9 86.0 0.0 0.0 0.0 -1.1 6.7 Kombisensor
2018-04-19 00:52:00 9.0 86.0 0.0 0.0 0.0 -0.1 6.8 Kombisensor
2018-04-19 00:47:00 9.1 86.0 0.0 0.0 0.0 -0.1 6.9 Kombisensor
2018-04-19 00:42:00 9.2 86.0 0.0 0.0 0.0 0.0 7.0 Kombisensor
2018-04-19 00:39:00 9.2 85.0 0.0 0.0 0.0 0.0 6.8 Kombisensor
2018-04-19 00:37:00 9.2 86.0 0.0 0.0 0.0 0.0 7.0 Kombisensor
2018-04-19 00:29:00 9.2 85.0 0.0 0.0 0.0 -0.1 6.8 Kombisensor
2018-04-19 00:24:00 9.3 85.0 0.0 0.0 0.0 -0.1 6.9 Kombisensor
2018-04-19 00:19:00 9.4 85.0 0.0 0.0 0.0 -0.2 7.0 Kombisensor
2018-04-19 00:09:00 9.6 85.0 0.0 0.0 0.0 -0.1 7.2 Kombisensor
2018-04-19 00:06:00 9.7 85.0 0.0 0.0 0.0 0.0 7.3 Kombisensor
2018-04-19 00:01:00 9.7 84.0 0.0 0.0 0.0 -1.2 7.1 Kombisensor